createdAt,value
2022-11-17T00:01:26.132Z,36.13
2022-11-17T00:04:17.656Z,36.13
2022-11-17T00:07:09.224Z,34.93
2022-11-17T00:10:01.115Z,37.85
2022-11-17T00:13:10.392Z,35.00
2022-11-17T00:16:02.066Z,36.73
2022-11-17T00:19:11.313Z,35.97
2022-11-17T00:22:02.909Z,37.87
2022-11-17T00:24:54.656Z,37.23
2022-11-17T00:27:46.075Z,37.40
2022-11-17T00:30:55.133Z,37.93
2022-11-17T00:34:04.522Z,36.87
2022-11-17T00:36:56.879Z,35.83
2022-11-17T00:42:38.461Z,35.13
2022-11-17T00:45:30.560Z,36.10
2022-11-17T00:48:22.493Z,36.28
2022-11-17T00:51:16.041Z,35.33
2022-11-17T00:54:08.651Z,35.70
2022-11-17T00:57:00.351Z,35.03
2022-11-17T00:59:53.483Z,36.00
2022-11-17T01:02:44.903Z,34.78
2022-11-17T01:05:37.338Z,34.60
2022-11-17T01:08:28.867Z,33.55
2022-11-17T01:11:21.612Z,35.20
2022-11-17T01:14:16.684Z,36.13
2022-11-17T01:17:08.657Z,33.73
2022-11-17T01:20:00.929Z,35.68
2022-11-17T01:22:55.009Z,35.80
2022-11-17T01:25:46.504Z,36.47
2022-11-17T01:28:38.334Z,33.93
2022-11-17T01:31:32.111Z,34.35
2022-11-17T01:34:24.352Z,35.13
2022-11-17T01:37:22.330Z,36.17
2022-11-17T01:40:15.374Z,38.00
2022-11-17T01:43:10.200Z,35.30
2022-11-17T01:46:02.731Z,36.33
2022-11-17T01:48:56.142Z,36.75
2022-11-17T01:51:50.922Z,36.10
2022-11-17T01:54:45.791Z,34.60
2022-11-17T01:57:43.605Z,33.00
2022-11-17T02:00:35.323Z,34.53
2022-11-17T02:03:28.621Z,33.73
2022-11-17T02:06:31.029Z,33.13
2022-11-17T02:09:23.812Z,34.67
2022-11-17T02:12:16.842Z,33.30
2022-11-17T02:15:09.568Z,34.20
2022-11-17T02:18:02.403Z,34.00
2022-11-17T02:21:01.856Z,34.30
2022-11-17T02:24:12.856Z,32.40
2022-11-17T02:27:42.159Z,33.13
2022-11-17T02:30:39.889Z,34.57
2022-11-17T02:33:45.165Z,34.17
2022-11-17T02:36:43.950Z,34.07
2022-11-17T02:39:39.982Z,32.93
2022-11-17T02:42:55.252Z,33.20
2022-11-17T02:45:51.817Z,32.97
2022-11-17T02:48:46.946Z,34.97
2022-11-17T02:51:39.965Z,33.30
2022-11-17T02:54:34.156Z,34.80
2022-11-17T02:57:32.938Z,33.77
2022-11-17T03:00:24.599Z,34.13
2022-11-17T03:03:31.887Z,34.57
2022-11-17T03:06:37.248Z,33.87
2022-11-17T03:09:43.518Z,33.13
2022-11-17T03:12:44.597Z,33.07
2022-11-17T03:15:48.784Z,33.40
2022-11-17T03:18:51.220Z,34.40
2022-11-17T03:21:47.913Z,33.33
2022-11-17T03:24:42.224Z,34.53
2022-11-17T03:27:37.452Z,33.23
2022-11-17T03:30:37.228Z,33.40
2022-11-17T03:33:30.562Z,31.40
2022-11-17T03:36:26.463Z,34.00
2022-11-17T03:39:23.844Z,34.53
2022-11-17T03:42:20.001Z,34.43
2022-11-17T03:45:17.822Z,33.70
2022-11-17T03:48:14.490Z,35.00
2022-11-17T03:51:12.597Z,34.63
2022-11-17T03:54:04.277Z,32.70
2022-11-17T03:57:01.567Z,33.50
2022-11-17T03:59:59.426Z,32.97
2022-11-17T04:02:55.885Z,34.70
2022-11-17T04:05:47.386Z,33.50
2022-11-17T04:08:39.104Z,35.57
2022-11-17T04:11:48.643Z,35.13
2022-11-17T04:14:57.753Z,31.30
2022-11-17T04:17:49.663Z,31.10
2022-11-17T04:20:41.876Z,33.53
2022-11-17T04:23:34.048Z,33.75
2022-11-17T04:26:43.398Z,33.33
2022-11-17T04:29:35.616Z,33.13
2022-11-17T04:32:27.672Z,32.98
2022-11-17T04:35:19.005Z,32.90
2022-11-17T04:38:12.590Z,32.47
2022-11-17T04:41:26.549Z,33.97
2022-11-17T04:44:19.124Z,33.27
2022-11-17T04:47:10.561Z,32.67
2022-11-17T04:50:02.394Z,31.75
2022-11-17T04:52:53.994Z,31.50
2022-11-17T04:55:45.423Z,32.00
2022-11-17T04:58:37.062Z,32.80
2022-11-17T05:01:29.995Z,32.43
2022-11-17T05:04:36.885Z,32.77
2022-11-17T05:07:28.814Z,31.77
2022-11-17T05:10:44.818Z,32.57
2022-11-17T05:13:37.068Z,32.03
2022-11-17T05:16:47.274Z,35.63
2022-11-17T05:19:40.360Z,34.23
2022-11-17T05:22:49.461Z,35.50
2022-11-17T05:25:41.423Z,33.83
2022-11-17T05:28:35.714Z,34.60
2022-11-17T05:31:28.914Z,34.83
2022-11-17T05:34:20.900Z,33.93
2022-11-17T05:37:12.466Z,33.55
2022-11-17T05:40:04.943Z,38.67
2022-11-17T05:45:49.801Z,36.60
2022-11-17T05:48:41.619Z,38.03
2022-11-17T05:51:33.709Z,38.27
2022-11-17T05:54:27.076Z,39.75
2022-11-17T05:57:24.008Z,38.23
2022-11-17T06:00:17.308Z,35.97
2022-11-17T06:03:14.298Z,39.80
2022-11-17T06:06:06.932Z,38.10
2022-11-17T06:08:58.795Z,36.90
2022-11-17T06:11:50.247Z,37.60
2022-11-17T06:14:41.871Z,36.90
2022-11-17T06:17:38.009Z,37.47
2022-11-17T06:20:38.159Z,35.07
2022-11-17T06:23:35.033Z,36.73
2022-11-17T06:26:26.696Z,36.93
2022-11-17T06:29:20.645Z,35.37
2022-11-17T06:32:12.400Z,37.70
2022-11-17T06:35:05.969Z,36.23
2022-11-17T06:37:57.492Z,37.03
2022-11-17T06:40:49.023Z,38.77
2022-11-17T06:43:40.239Z,35.87
2022-11-17T06:46:38.114Z,37.00
2022-11-17T06:49:30.315Z,35.37
2022-11-17T06:52:23.245Z,36.55
2022-11-17T06:55:14.520Z,38.07
2022-11-17T06:58:07.759Z,35.77
2022-11-17T07:01:05.010Z,36.10
2022-11-17T07:03:56.767Z,37.13
2022-11-17T07:06:48.169Z,37.70
2022-11-17T07:09:39.464Z,34.10
2022-11-17T07:12:31.254Z,39.07
2022-11-17T07:15:23.476Z,36.17
2022-11-17T07:21:22.957Z,37.23
2022-11-17T07:24:15.782Z,35.87
2022-11-17T07:27:07.500Z,35.57
2022-11-17T07:29:59.329Z,36.13
2022-11-17T07:32:54.664Z,35.13
2022-11-17T07:35:46.764Z,34.53
2022-11-17T07:38:40.196Z,35.92
2022-11-17T07:41:33.065Z,35.27
2022-11-17T07:44:24.948Z,36.03
2022-11-17T07:47:16.636Z,35.78
2022-11-17T07:50:09.465Z,36.77
2022-11-17T07:53:01.522Z,35.77
2022-11-17T07:55:52.980Z,37.33
2022-11-17T07:58:46.729Z,36.20
2022-11-17T08:01:38.789Z,36.25
2022-11-17T08:04:31.027Z,36.30
2022-11-17T08:07:23.234Z,37.63
2022-11-17T08:10:15.090Z,37.00
2022-11-17T08:13:07.827Z,37.42
2022-11-17T08:16:01.877Z,36.93
2022-11-17T08:18:53.611Z,37.33
2022-11-17T08:21:45.121Z,35.17
2022-11-17T08:24:39.886Z,36.37
2022-11-17T08:27:32.273Z,36.70
2022-11-17T08:30:24.388Z,37.13
2022-11-17T08:33:16.099Z,36.50
2022-11-17T08:36:09.487Z,37.35
2022-11-17T08:39:01.379Z,38.00
2022-11-17T08:41:56.385Z,37.17
2022-11-17T08:44:48.408Z,37.10
2022-11-17T08:47:40.299Z,35.75
2022-11-17T08:50:31.994Z,37.17
2022-11-17T08:53:25.149Z,37.10
2022-11-17T08:56:17.146Z,37.00
2022-11-17T08:59:09.596Z,38.48
2022-11-17T09:02:01.332Z,40.58
2022-11-17T09:04:53.702Z,44.58
2022-11-17T09:07:47.598Z,45.23
2022-11-17T09:10:41.308Z,40.63
2022-11-17T09:13:34.061Z,40.87
2022-11-17T09:16:25.641Z,38.25
2022-11-17T09:19:20.586Z,38.98
2022-11-17T09:22:11.920Z,40.87
2022-11-17T09:25:11.840Z,39.17
2022-11-17T09:28:05.132Z,39.03
2022-11-17T09:30:57.508Z,37.53
2022-11-17T09:36:39.728Z,36.77
2022-11-17T09:39:31.499Z,38.05
2022-11-17T09:42:26.011Z,35.80
2022-11-17T09:45:23.237Z,35.67
2022-11-17T09:48:40.230Z,34.40
2022-11-17T09:51:33.276Z,32.20
2022-11-17T09:54:31.318Z,30.73
2022-11-17T09:57:30.353Z,32.40
2022-11-17T10:00:24.191Z,29.87
2022-11-17T10:03:21.228Z,29.53
2022-11-17T10:06:17.568Z,28.67
2022-11-17T10:09:25.578Z,28.70
2022-11-17T10:12:20.925Z,27.30
2022-11-17T10:15:26.986Z,28.10
2022-11-17T10:18:19.178Z,28.03
2022-11-17T10:21:11.680Z,27.55
2022-11-17T10:24:04.202Z,24.93
2022-11-17T10:26:55.897Z,24.98
2022-11-17T10:29:59.711Z,23.02
2022-11-17T10:32:53.115Z,23.17
2022-11-17T10:36:02.336Z,23.87
2022-11-17T10:39:02.707Z,23.17
2022-11-17T10:48:36.960Z,22.73
2022-11-17T10:51:32.116Z,22.00
2022-11-17T10:54:35.422Z,21.53
2022-11-17T10:57:34.729Z,21.53
2022-11-17T11:00:37.041Z,21.90
2022-11-17T11:03:40.665Z,21.63
2022-11-17T11:06:48.231Z,22.00
2022-11-17T11:10:05.493Z,21.53
2022-11-17T11:13:39.901Z,21.43
2022-11-17T11:16:41.404Z,20.23
2022-11-17T11:19:37.393Z,22.55
2022-11-17T11:22:38.137Z,23.12
2022-11-17T11:25:36.110Z,23.70
2022-11-17T11:28:47.938Z,23.30
2022-11-17T11:31:56.574Z,21.87
2022-11-17T11:35:17.180Z,20.93
2022-11-17T11:38:32.259Z,22.93
2022-11-17T11:41:58.241Z,24.67
2022-11-17T11:45:06.508Z,23.90
2022-11-17T11:48:27.897Z,25.83
2022-11-17T11:51:25.495Z,25.47
2022-11-17T11:54:25.349Z,26.60
2022-11-17T11:57:19.433Z,25.87
2022-11-17T12:00:23.356Z,29.33
2022-11-17T12:03:26.433Z,27.20
2022-11-17T12:06:43.954Z,26.87
2022-11-17T12:10:05.966Z,27.17
2022-11-17T12:12:58.668Z,26.20
2022-11-17T12:16:20.872Z,25.70
2022-11-17T12:19:55.462Z,22.87
2022-11-17T12:23:16.396Z,21.83
2022-11-17T12:26:08.767Z,21.33
2022-11-17T12:29:30.902Z,21.70
2022-11-17T12:32:54.810Z,22.97
2022-11-17T12:35:46.669Z,21.87
2022-11-17T12:38:45.346Z,22.73
2022-11-17T12:42:07.594Z,22.10
2022-11-17T12:45:08.814Z,24.87
2022-11-17T12:48:26.725Z,22.50
2022-11-17T12:51:18.225Z,24.30
2022-11-17T12:54:23.637Z,23.60
2022-11-17T12:57:19.733Z,25.17
2022-11-17T13:00:20.536Z,24.83
2022-11-17T13:03:17.683Z,23.17
2022-11-17T13:09:30.778Z,21.63
2022-11-17T13:12:27.562Z,19.40
2022-11-17T13:15:25.533Z,19.07
2022-11-17T13:18:29.315Z,19.90
2022-11-17T13:21:32.677Z,19.63
2022-11-17T13:24:34.217Z,18.93
2022-11-17T13:27:29.295Z,17.17
2022-11-17T13:30:25.457Z,17.13
2022-11-17T13:33:23.910Z,17.20
2022-11-17T13:36:25.070Z,16.77
2022-11-17T13:39:33.932Z,15.43
2022-11-17T13:42:31.558Z,14.40
2022-11-17T13:45:25.519Z,15.17
2022-11-17T13:48:35.182Z,12.93
2022-11-17T13:51:36.046Z,12.57
2022-11-17T13:54:28.857Z,12.93
2022-11-17T13:57:28.215Z,12.47
2022-11-17T14:00:22.502Z,12.77
2022-11-17T14:03:54.691Z,11.73
2022-11-17T14:07:01.864Z,12.07
2022-11-17T14:10:14.538Z,12.03
2022-11-17T14:13:38.480Z,12.70
2022-11-17T14:16:35.696Z,13.67
2022-11-17T14:19:40.452Z,13.47
2022-11-17T14:22:32.170Z,14.60
2022-11-17T14:25:23.783Z,15.05
2022-11-17T14:28:18.056Z,15.70
2022-11-17T14:31:14.777Z,15.53
2022-11-17T14:34:06.464Z,16.43
2022-11-17T14:36:58.908Z,16.42
2022-11-17T14:40:04.433Z,15.90
2022-11-17T14:42:56.179Z,16.50
2022-11-17T14:45:48.389Z,17.48
2022-11-17T14:48:39.765Z,19.00
2022-11-17T14:51:34.233Z,19.00
2022-11-17T14:54:25.902Z,21.47
2022-11-17T14:57:17.401Z,21.43
2022-11-17T15:00:17.276Z,23.22
2022-11-17T15:03:11.796Z,24.67
2022-11-17T15:06:05.205Z,25.25
2022-11-17T15:09:03.102Z,25.17
2022-11-17T15:11:55.044Z,24.67
2022-11-17T15:17:37.452Z,17.63
2022-11-17T15:20:29.862Z,16.35
2022-11-17T15:23:21.590Z,15.73
2022-11-17T15:26:15.812Z,16.90
2022-11-17T15:29:07.911Z,15.77
2022-11-17T15:31:59.575Z,16.75
2022-11-17T15:34:51.242Z,17.00
2022-11-17T15:37:42.550Z,20.17
2022-11-17T15:40:34.177Z,20.17
2022-11-17T15:43:29.349Z,19.97
2022-11-17T15:46:21.886Z,20.07
2022-11-17T15:49:13.769Z,18.07
2022-11-17T15:52:09.108Z,18.43
2022-11-17T15:55:00.975Z,24.33
2022-11-17T15:57:57.453Z,29.50
2022-11-17T16:00:49.413Z,26.80
2022-11-17T16:03:41.810Z,24.57
2022-11-17T16:06:35.112Z,22.70
2022-11-17T16:09:27.100Z,23.07
2022-11-17T16:12:18.873Z,23.73
2022-11-17T16:15:12.474Z,25.25
2022-11-17T16:18:04.610Z,24.57
2022-11-17T16:21:00.182Z,23.50
2022-11-17T16:23:57.191Z,23.77
2022-11-17T16:26:49.903Z,22.70
2022-11-17T16:29:41.455Z,23.60
2022-11-17T16:32:34.275Z,23.87
2022-11-17T16:35:26.600Z,24.47
2022-11-17T16:38:18.727Z,26.00
2022-11-17T16:41:10.350Z,23.37
2022-11-17T16:44:01.993Z,25.10
2022-11-17T16:46:53.957Z,26.12
2022-11-17T16:49:50.521Z,25.95
2022-11-17T16:52:43.054Z,27.00
2022-11-17T16:55:36.470Z,28.50
2022-11-17T16:58:28.078Z,35.77
2022-11-17T17:01:22.051Z,35.97
2022-11-17T17:04:14.412Z,22.80
2022-11-17T17:07:05.992Z,21.45
2022-11-17T17:09:57.725Z,19.98
2022-11-17T17:12:49.687Z,20.43
2022-11-17T17:15:41.682Z,22.32
2022-11-17T17:18:33.695Z,23.00
2022-11-17T17:21:25.471Z,22.40
2022-11-17T17:24:19.073Z,22.65
2022-11-17T17:27:10.890Z,21.70
2022-11-17T17:30:02.837Z,22.42
2022-11-17T17:32:54.377Z,20.52
2022-11-17T17:35:46.069Z,17.15
2022-11-17T17:38:38.222Z,15.53
2022-11-17T17:41:32.142Z,15.60
2022-11-17T17:44:23.850Z,15.10
2022-11-17T17:47:15.408Z,12.95
2022-11-17T17:50:08.709Z,12.75
2022-11-17T17:56:10.139Z,13.50
2022-11-17T17:59:01.914Z,13.07
2022-11-17T18:01:53.547Z,13.32
2022-11-17T18:04:45.113Z,14.38
2022-11-17T18:07:36.310Z,13.63
2022-11-17T18:10:28.993Z,13.95
2022-11-17T18:16:12.739Z,15.10
2022-11-17T18:19:06.105Z,14.90
2022-11-17T18:21:58.086Z,16.20
2022-11-17T18:24:49.592Z,18.27
2022-11-17T18:27:41.328Z,17.87
2022-11-17T18:30:32.917Z,17.47
2022-11-17T18:33:24.805Z,15.63
2022-11-17T18:36:16.041Z,16.37
2022-11-17T18:39:08.041Z,14.07
2022-11-17T18:41:59.881Z,14.60
2022-11-17T18:44:51.867Z,12.53
2022-11-17T18:47:43.217Z,12.90
2022-11-17T18:50:47.567Z,12.97
2022-11-17T18:53:46.560Z,15.30
2022-11-17T18:56:39.278Z,13.40
2022-11-17T18:59:30.822Z,15.17
2022-11-17T19:02:22.270Z,16.70
2022-11-17T19:05:14.071Z,17.27
2022-11-17T19:08:05.772Z,15.27
2022-11-17T19:10:59.803Z,14.50
2022-11-17T19:13:54.848Z,14.43
2022-11-17T19:16:46.692Z,14.50
2022-11-17T19:19:38.454Z,14.95
2022-11-17T19:22:30.136Z,15.00
2022-11-17T19:25:21.772Z,17.60
2022-11-17T19:28:15.540Z,16.80
2022-11-17T19:31:08.687Z,16.63
2022-11-17T19:34:00.955Z,17.10
2022-11-17T19:36:53.066Z,16.67
2022-11-17T19:39:44.512Z,16.40
2022-11-17T19:42:36.670Z,14.97
2022-11-17T19:45:28.195Z,14.95
2022-11-17T19:48:20.102Z,15.60
2022-11-17T19:51:22.483Z,14.53
2022-11-17T19:54:15.607Z,16.05
2022-11-17T19:57:07.481Z,14.47
2022-11-17T19:59:59.423Z,16.17
2022-11-17T20:02:50.798Z,15.63
2022-11-17T20:05:42.417Z,14.47
2022-11-17T20:08:34.655Z,14.40
2022-11-17T20:11:28.244Z,15.03
2022-11-17T20:14:20.497Z,14.40
2022-11-17T20:17:14.702Z,15.10
2022-11-17T20:20:07.759Z,15.57
2022-11-17T20:22:59.499Z,16.57
2022-11-17T20:25:51.491Z,16.10
2022-11-17T20:28:43.659Z,15.88
2022-11-17T20:31:36.960Z,15.18
2022-11-17T20:34:28.612Z,15.33
2022-11-17T20:37:20.393Z,14.58
2022-11-17T20:40:13.917Z,14.57
2022-11-17T20:43:05.244Z,15.40
2022-11-17T20:45:57.883Z,14.80
2022-11-17T20:48:50.039Z,15.10
2022-11-17T20:51:42.148Z,14.28
2022-11-17T20:54:34.283Z,14.95
2022-11-17T20:57:25.620Z,15.05
2022-11-17T21:00:18.364Z,14.40
2022-11-17T21:03:10.255Z,15.37
2022-11-17T21:06:03.353Z,15.83
2022-11-17T21:08:55.106Z,14.47
2022-11-17T21:11:58.550Z,14.77
2022-11-17T21:14:50.813Z,14.47
2022-11-17T21:17:59.970Z,14.68
2022-11-17T21:20:51.428Z,15.50
2022-11-17T21:23:44.065Z,18.23
2022-11-17T21:26:35.675Z,18.40
2022-11-17T21:29:27.065Z,16.75
2022-11-17T21:32:18.282Z,17.27
2022-11-17T21:35:11.846Z,16.33
2022-11-17T21:38:03.179Z,17.17
2022-11-17T21:40:54.562Z,14.73
2022-11-17T21:43:48.206Z,13.20
2022-11-17T21:46:39.639Z,12.50
2022-11-17T21:49:30.980Z,14.03
2022-11-17T21:52:22.219Z,14.70
2022-11-17T21:55:13.941Z,13.97
2022-11-17T21:58:05.237Z,14.70
2022-11-17T22:00:56.519Z,15.03
2022-11-17T22:03:48.468Z,14.58
2022-11-17T22:06:41.202Z,14.90
2022-11-17T22:09:32.483Z,14.63
2022-11-17T22:12:24.153Z,15.00
2022-11-17T22:15:15.835Z,16.23
2022-11-17T22:18:07.609Z,15.40
2022-11-17T22:20:59.387Z,16.33
2022-11-17T22:23:51.690Z,15.50
2022-11-17T22:26:46.029Z,14.43
2022-11-17T22:29:37.849Z,15.43
2022-11-17T22:32:29.336Z,14.18
2022-11-17T22:35:21.171Z,15.28
2022-11-17T22:38:13.333Z,15.67
2022-11-17T22:41:06.087Z,15.10
2022-11-17T22:46:48.106Z,13.77
2022-11-17T22:49:39.789Z,15.00
2022-11-17T22:52:31.253Z,17.42
2022-11-17T22:55:22.529Z,16.97
2022-11-17T22:58:16.089Z,15.00
2022-11-17T23:01:09.338Z,17.07
2022-11-17T23:04:01.510Z,16.70
2022-11-17T23:06:52.729Z,16.43
2022-11-17T23:09:44.672Z,17.60
2022-11-17T23:12:36.044Z,17.33
2022-11-17T23:15:28.816Z,18.67
2022-11-17T23:18:20.564Z,15.57
2022-11-17T23:21:14.000Z,16.73
2022-11-17T23:24:05.320Z,18.27
2022-11-17T23:26:56.496Z,18.00
2022-11-17T23:29:48.052Z,19.10
2022-11-17T23:32:39.519Z,17.80
2022-11-17T23:35:31.624Z,19.10
2022-11-17T23:38:23.468Z,18.62
2022-11-17T23:41:16.561Z,16.67
2022-11-17T23:44:08.744Z,17.13
2022-11-17T23:47:00.472Z,16.23
2022-11-17T23:49:51.838Z,17.10
2022-11-17T23:52:42.954Z,17.43
2022-11-17T23:55:34.140Z,18.30
2022-11-17T23:58:25.816Z,17.50
